createdAt,value
2019-04-27T00:00:47.640Z,13.14
2019-04-27T00:01:48.589Z,13.17
2019-04-27T00:02:47.633Z,13.17
2019-04-27T00:03:47.630Z,13.16
2019-04-27T00:04:48.743Z,13.13
2019-04-27T00:05:47.632Z,13.19
2019-04-27T00:06:47.604Z,13.10
2019-04-27T00:07:51.402Z,13.13
2019-04-27T00:08:47.595Z,13.04
2019-04-27T00:09:51.298Z,13.06
2019-04-27T00:10:47.586Z,12.99
2019-04-27T00:11:47.579Z,12.95
2019-04-27T00:12:47.570Z,12.87
2019-04-27T00:13:47.562Z,12.91
2019-04-27T00:14:48.290Z,12.96
2019-04-27T00:15:47.552Z,12.87
2019-04-27T00:16:50.869Z,12.88
2019-04-27T00:17:49.589Z,12.70
2019-04-27T00:18:49.709Z,12.69
2019-04-27T00:19:47.521Z,12.69
2019-04-27T00:20:47.514Z,12.62
2019-04-27T00:21:47.506Z,12.58
2019-04-27T00:22:47.504Z,12.58
2019-04-27T00:23:47.499Z,12.51
2019-04-27T00:24:47.494Z,12.44
2019-04-27T00:25:47.487Z,12.43
2019-04-27T00:26:47.476Z,12.46
2019-04-27T00:27:47.470Z,12.40
2019-04-27T00:28:47.466Z,12.34
2019-04-27T00:29:47.459Z,12.33
2019-04-27T00:30:47.450Z,12.37
2019-04-27T00:31:47.445Z,12.30
2019-04-27T00:32:47.435Z,12.40
2019-04-27T00:33:47.427Z,12.26
2019-04-27T00:34:47.425Z,12.33
2019-04-27T00:35:47.421Z,12.37
2019-04-27T00:36:47.415Z,12.37
2019-04-27T00:37:47.405Z,12.30
2019-04-27T00:38:47.393Z,12.33
2019-04-27T00:39:47.386Z,12.26
2019-04-27T00:40:47.382Z,12.26
2019-04-27T00:41:47.375Z,12.31
2019-04-27T00:42:47.372Z,12.23
2019-04-27T00:43:47.365Z,12.23
2019-04-27T00:44:47.354Z,12.25
2019-04-27T00:45:47.350Z,12.23
2019-04-27T00:46:47.346Z,12.29
2019-04-27T00:47:56.281Z,12.23
2019-04-27T00:48:47.328Z,12.23
2019-04-27T00:49:47.323Z,12.25
2019-04-27T00:50:47.309Z,12.25
2019-04-27T00:51:47.304Z,12.22
2019-04-27T00:52:47.299Z,12.22
2019-04-27T00:53:47.291Z,12.21
2019-04-27T00:54:47.289Z,12.23
2019-04-27T00:55:47.281Z,12.21
2019-04-27T00:56:47.271Z,12.21
2019-04-27T00:57:47.264Z,12.22
2019-04-27T00:58:47.253Z,12.19
2019-04-27T00:59:47.247Z,12.25
2019-04-27T01:00:47.245Z,12.23
2019-04-27T01:01:47.235Z,12.23
2019-04-27T01:02:47.226Z,12.25
2019-04-27T01:03:47.230Z,12.23
2019-04-27T01:04:47.212Z,12.26
2019-04-27T01:05:47.205Z,12.19
2019-04-27T01:06:47.201Z,12.19
2019-04-27T01:07:47.194Z,12.13
2019-04-27T01:08:47.186Z,12.15
2019-04-27T01:09:47.181Z,12.11
2019-04-27T01:10:47.169Z,12.11
2019-04-27T01:11:47.169Z,12.11
2019-04-27T01:12:47.151Z,12.05
2019-04-27T01:13:47.145Z,12.15
2019-04-27T01:14:47.143Z,11.97
2019-04-27T01:15:47.135Z,12.00
2019-04-27T01:16:47.123Z,11.94
2019-04-27T01:17:48.947Z,12.12
2019-04-27T01:18:48.824Z,12.08
2019-04-27T01:19:47.106Z,12.11
2019-04-27T01:20:48.860Z,12.12
2019-04-27T01:21:47.094Z,12.07
2019-04-27T01:22:47.080Z,12.03
2019-04-27T01:23:48.712Z,12.07
2019-04-27T01:24:47.067Z,12.00
2019-04-27T01:25:47.061Z,11.97
2019-04-27T01:26:47.055Z,12.00
2019-04-27T01:27:47.049Z,11.94
2019-04-27T01:28:47.039Z,11.97
2019-04-27T01:29:47.031Z,12.00
2019-04-27T01:30:47.019Z,11.94
2019-04-27T01:31:48.568Z,11.98
2019-04-27T01:32:47.009Z,11.96
2019-04-27T01:33:48.793Z,11.85
2019-04-27T01:34:46.992Z,11.90
2019-04-27T01:35:46.983Z,11.90
2019-04-27T01:36:46.977Z,11.82
2019-04-27T01:37:48.674Z,11.87
2019-04-27T01:38:46.970Z,11.87
2019-04-27T01:39:48.528Z,11.81
2019-04-27T01:40:46.952Z,11.77
2019-04-27T01:41:46.947Z,11.74
2019-04-27T01:42:48.384Z,11.84
2019-04-27T01:43:46.927Z,11.85
2019-04-27T01:44:46.916Z,11.82
2019-04-27T01:45:48.731Z,11.67
2019-04-27T01:46:48.565Z,11.67
2019-04-27T01:47:46.898Z,11.78
2019-04-27T01:48:46.886Z,11.75
2019-04-27T01:49:46.879Z,11.75
2019-04-27T01:50:46.877Z,11.72
2019-04-27T01:51:46.867Z,11.77
2019-04-27T01:52:48.555Z,11.67
2019-04-27T01:53:46.857Z,11.77
2019-04-27T01:54:46.843Z,11.77
2019-04-27T01:55:49.007Z,11.77
2019-04-27T01:56:46.831Z,11.74
2019-04-27T01:57:48.648Z,11.79
2019-04-27T01:58:46.817Z,11.69
2019-04-27T01:59:46.819Z,11.70
2019-04-27T02:00:46.800Z,11.62
2019-04-27T02:01:46.791Z,11.66
2019-04-27T02:02:46.781Z,11.62
2019-04-27T02:03:46.772Z,11.69
2019-04-27T02:04:46.771Z,11.59
2019-04-27T02:05:46.762Z,11.66
2019-04-27T02:06:48.620Z,11.63
2019-04-27T02:07:46.743Z,11.66
2019-04-27T02:08:46.735Z,11.63
2019-04-27T02:09:48.562Z,11.64
2019-04-27T02:10:46.726Z,11.59
2019-04-27T02:11:46.721Z,11.62
2019-04-27T02:12:48.618Z,11.56
2019-04-27T02:13:46.702Z,11.62
2019-04-27T02:14:46.697Z,11.64
2019-04-27T02:15:48.562Z,11.59
2019-04-27T02:16:46.672Z,11.59
2019-04-27T02:17:46.664Z,11.60
2019-04-27T02:18:46.662Z,11.57
2019-04-27T02:19:46.654Z,11.56
2019-04-27T02:20:46.642Z,11.59
2019-04-27T02:21:46.636Z,11.59
2019-04-27T02:22:46.632Z,11.57
2019-04-27T02:23:46.626Z,11.57
2019-04-27T02:24:46.620Z,11.54
2019-04-27T02:25:46.611Z,11.57
2019-04-27T02:26:46.601Z,11.59
2019-04-27T02:27:46.592Z,11.56
2019-04-27T02:28:46.584Z,11.56
2019-04-27T02:29:46.583Z,11.63
2019-04-27T02:30:46.573Z,11.53
2019-04-27T02:31:46.567Z,11.56
2019-04-27T02:32:46.556Z,11.56
2019-04-27T02:33:46.557Z,11.62
2019-04-27T02:34:46.544Z,11.56
2019-04-27T02:35:46.529Z,11.53
2019-04-27T02:36:46.525Z,11.56
2019-04-27T02:37:46.516Z,11.62
2019-04-27T02:38:46.505Z,11.56
2019-04-27T02:39:46.499Z,11.62
2019-04-27T02:40:46.503Z,11.64
2019-04-27T02:41:46.485Z,11.59
2019-04-27T02:42:46.483Z,11.62
2019-04-27T02:43:46.473Z,11.64
2019-04-27T02:44:46.467Z,11.63
2019-04-27T02:45:46.458Z,11.66
2019-04-27T02:46:46.448Z,11.63
2019-04-27T02:47:46.444Z,11.57
2019-04-27T02:48:58.948Z,11.66
2019-04-27T02:49:46.424Z,11.57
2019-04-27T02:50:46.418Z,11.57
2019-04-27T02:51:46.410Z,11.70
2019-04-27T02:52:46.401Z,11.62
2019-04-27T02:53:46.389Z,11.67
2019-04-27T02:54:46.388Z,11.66
2019-04-27T02:55:46.379Z,11.67
2019-04-27T02:56:46.381Z,11.66
2019-04-27T02:57:46.366Z,11.64
2019-04-27T02:58:46.355Z,11.63
2019-04-27T02:59:46.348Z,11.66
2019-04-27T03:00:46.336Z,11.63
2019-04-27T03:01:46.963Z,11.64
2019-04-27T03:02:46.326Z,11.64
2019-04-27T03:03:46.318Z,11.62
2019-04-27T03:04:46.310Z,11.62
2019-04-27T03:05:46.305Z,11.57
2019-04-27T03:06:46.294Z,11.59
2019-04-27T03:07:46.286Z,11.63
2019-04-27T03:08:50.642Z,11.59
2019-04-27T03:09:46.276Z,11.57
2019-04-27T03:10:46.264Z,11.51
2019-04-27T03:11:46.256Z,11.49
2019-04-27T03:12:46.244Z,11.56
2019-04-27T03:13:46.238Z,11.57
2019-04-27T03:14:46.234Z,11.45
2019-04-27T03:15:46.227Z,11.56
2019-04-27T03:16:46.217Z,11.45
2019-04-27T03:17:46.211Z,11.46
2019-04-27T03:18:46.199Z,11.51
2019-04-27T03:19:46.193Z,11.46
2019-04-27T03:20:46.186Z,11.46
2019-04-27T03:21:46.177Z,11.45
2019-04-27T03:22:46.174Z,11.41
2019-04-27T03:23:46.166Z,11.39
2019-04-27T03:24:46.157Z,11.39
2019-04-27T03:25:46.148Z,11.35
2019-04-27T03:26:46.144Z,11.38
2019-04-27T03:27:46.138Z,11.46
2019-04-27T03:28:46.127Z,11.39
2019-04-27T03:29:46.118Z,11.31
2019-04-27T03:30:46.109Z,11.30
2019-04-27T03:31:47.654Z,11.30
2019-04-27T03:32:46.090Z,11.35
2019-04-27T03:33:46.086Z,11.31
2019-04-27T03:34:46.080Z,11.28
2019-04-27T03:35:46.074Z,11.30
2019-04-27T03:36:46.071Z,11.20
2019-04-27T03:37:46.059Z,11.30
2019-04-27T03:38:46.046Z,11.16
2019-04-27T03:39:46.053Z,11.27
2019-04-27T03:40:46.035Z,11.24
2019-04-27T03:41:46.027Z,11.19
2019-04-27T03:42:46.015Z,11.31
2019-04-27T03:43:46.010Z,11.27
2019-04-27T03:44:45.998Z,11.23
2019-04-27T03:45:45.991Z,11.20
2019-04-27T03:46:45.986Z,11.16
2019-04-27T03:47:45.981Z,11.12
2019-04-27T03:48:45.972Z,11.20
2019-04-27T03:49:45.963Z,11.19
2019-04-27T03:50:45.952Z,11.19
2019-04-27T03:51:45.947Z,11.21
2019-04-27T03:52:45.938Z,11.17
2019-04-27T03:53:45.941Z,11.16
2019-04-27T03:54:45.927Z,11.23
2019-04-27T03:55:45.920Z,11.13
2019-04-27T03:56:45.907Z,11.16
2019-04-27T03:57:45.898Z,11.17
2019-04-27T03:58:45.899Z,11.23
2019-04-27T03:59:45.888Z,11.24
2019-04-27T04:00:45.876Z,11.13
2019-04-27T04:01:45.869Z,11.26
2019-04-27T04:02:45.858Z,11.12
2019-04-27T04:03:45.851Z,11.20
2019-04-27T04:04:45.846Z,11.24
2019-04-27T04:05:45.840Z,11.12
2019-04-27T04:06:45.835Z,11.17
2019-04-27T04:07:45.830Z,11.11
2019-04-27T04:08:45.819Z,11.19
2019-04-27T04:09:45.815Z,11.20
2019-04-27T04:10:45.798Z,11.16
2019-04-27T04:11:45.790Z,11.09
2019-04-27T04:12:45.791Z,11.19
2019-04-27T04:13:45.779Z,11.11
2019-04-27T04:14:45.778Z,11.13
2019-04-27T04:15:45.759Z,11.16
2019-04-27T04:16:45.759Z,11.12
2019-04-27T04:17:45.745Z,11.11
2019-04-27T04:18:45.743Z,11.11
2019-04-27T04:19:54.481Z,11.23
2019-04-27T04:20:45.726Z,11.23
2019-04-27T04:21:45.720Z,11.31
2019-04-27T04:22:45.708Z,11.30
2019-04-27T04:23:45.700Z,11.31
2019-04-27T04:24:45.689Z,11.30
2019-04-27T04:25:45.691Z,11.33
2019-04-27T04:26:45.679Z,11.31
2019-04-27T04:27:45.673Z,11.45
2019-04-27T04:28:45.658Z,11.42
2019-04-27T04:29:45.651Z,11.31
2019-04-27T04:30:45.649Z,11.38
2019-04-27T04:31:45.646Z,11.31
2019-04-27T04:32:45.636Z,11.41
2019-04-27T04:33:45.626Z,11.42
2019-04-27T04:34:45.618Z,11.49
2019-04-27T04:35:45.610Z,11.48
2019-04-27T04:36:45.615Z,11.56
2019-04-27T04:37:45.595Z,11.49
2019-04-27T04:38:45.589Z,11.56
2019-04-27T04:39:45.583Z,11.53
2019-04-27T04:40:45.573Z,11.56
2019-04-27T04:41:45.567Z,11.57
2019-04-27T04:42:45.554Z,11.54
2019-04-27T04:43:45.546Z,11.62
2019-04-27T04:44:45.546Z,11.70
2019-04-27T04:45:45.534Z,11.77
2019-04-27T04:46:45.525Z,12.05
2019-04-27T04:47:45.565Z,12.21
2019-04-27T04:48:45.516Z,12.44
2019-04-27T04:49:45.507Z,12.38
2019-04-27T04:50:45.507Z,12.59
2019-04-27T04:51:45.496Z,12.62
2019-04-27T04:52:45.486Z,12.87
2019-04-27T04:53:45.486Z,12.89
2019-04-27T04:54:45.470Z,13.01
2019-04-27T04:55:45.463Z,12.91
2019-04-27T04:56:45.452Z,12.63
2019-04-27T04:57:45.446Z,12.56
2019-04-27T04:58:45.445Z,12.56
2019-04-27T04:59:45.439Z,12.44
2019-04-27T05:00:45.426Z,12.48
2019-04-27T05:01:45.420Z,12.25
2019-04-27T05:02:45.420Z,12.21
2019-04-27T05:03:45.418Z,12.21
2019-04-27T05:04:45.409Z,12.11
2019-04-27T05:05:45.400Z,12.16
2019-04-27T05:06:45.393Z,12.07
2019-04-27T05:07:45.385Z,12.03
2019-04-27T05:08:45.376Z,12.03
2019-04-27T05:09:45.371Z,11.98
2019-04-27T05:10:45.367Z,11.97
2019-04-27T05:11:45.363Z,11.98
2019-04-27T05:12:45.358Z,11.97
2019-04-27T05:13:45.349Z,12.00
2019-04-27T05:14:45.342Z,12.00
2019-04-27T05:15:45.334Z,11.97
2019-04-27T05:16:45.334Z,11.96
2019-04-27T05:17:45.324Z,11.97
2019-04-27T05:18:45.318Z,11.97
2019-04-27T05:19:45.309Z,11.98
2019-04-27T05:20:45.298Z,12.03
2019-04-27T05:21:45.292Z,11.98
2019-04-27T05:22:45.288Z,11.98
2019-04-27T05:23:45.295Z,11.88
2019-04-27T05:24:45.277Z,11.94
2019-04-27T05:25:45.268Z,11.96
2019-04-27T05:26:45.258Z,11.96
2019-04-27T05:27:45.251Z,11.98
2019-04-27T05:28:45.248Z,11.97
2019-04-27T05:29:45.242Z,11.98
2019-04-27T05:30:45.238Z,11.90
2019-04-27T05:31:45.231Z,12.03
2019-04-27T05:32:45.218Z,12.04
2019-04-27T05:33:45.214Z,12.04
2019-04-27T05:34:45.210Z,12.07
2019-04-27T05:35:45.205Z,12.12
2019-04-27T05:36:48.970Z,12.05
2019-04-27T05:37:45.189Z,11.97
2019-04-27T05:38:46.746Z,11.98
2019-04-27T05:39:45.170Z,12.05
2019-04-27T05:40:45.164Z,12.05
2019-04-27T05:41:45.157Z,12.00
2019-04-27T05:42:48.816Z,12.04
2019-04-27T05:43:45.147Z,12.07
2019-04-27T05:44:46.586Z,12.11
2019-04-27T05:45:45.135Z,12.13
2019-04-27T05:46:45.128Z,12.11
2019-04-27T05:47:50.188Z,12.07
2019-04-27T05:48:45.117Z,12.01
2019-04-27T05:49:45.114Z,12.05
2019-04-27T05:50:45.999Z,12.13
2019-04-27T05:51:47.898Z,12.11
2019-04-27T05:52:45.083Z,12.22
2019-04-27T05:53:45.077Z,12.11
2019-04-27T05:54:45.074Z,12.00
2019-04-27T05:55:45.067Z,11.97
2019-04-27T05:56:45.059Z,12.12
2019-04-27T05:57:45.053Z,12.00
2019-04-27T05:58:45.043Z,12.11
2019-04-27T05:59:45.037Z,12.00
2019-04-27T06:00:45.035Z,12.07
2019-04-27T06:01:45.034Z,11.93
2019-04-27T06:02:45.021Z,12.03
2019-04-27T06:03:45.015Z,11.97
2019-04-27T06:04:45.004Z,11.94
2019-04-27T06:05:44.998Z,11.96
2019-04-27T06:06:44.994Z,11.88
2019-04-27T06:07:44.988Z,11.90
2019-04-27T06:08:44.977Z,11.82
2019-04-27T06:09:44.970Z,11.84
2019-04-27T06:10:44.961Z,11.81
2019-04-27T06:11:44.953Z,11.84
2019-04-27T06:12:44.947Z,11.78
2019-04-27T06:13:44.941Z,11.93
2019-04-27T06:14:44.939Z,11.93
2019-04-27T06:15:44.932Z,11.75
2019-04-27T06:16:44.921Z,11.72
2019-04-27T06:17:44.915Z,11.85
2019-04-27T06:18:44.902Z,11.82
2019-04-27T06:19:44.899Z,11.75
2019-04-27T06:20:54.786Z,11.90
2019-04-27T06:21:44.886Z,11.82
2019-04-27T06:22:44.875Z,11.82
2019-04-27T06:23:44.868Z,11.81
2019-04-27T06:24:44.863Z,11.69
2019-04-27T06:25:44.856Z,11.77
2019-04-27T06:26:44.853Z,11.74
2019-04-27T06:27:44.845Z,11.79
2019-04-27T06:28:44.837Z,11.77
2019-04-27T06:29:44.830Z,11.69
2019-04-27T06:30:44.821Z,11.75
2019-04-27T06:31:44.812Z,11.74
2019-04-27T06:32:44.802Z,11.81
2019-04-27T06:33:44.807Z,11.78
2019-04-27T06:34:44.792Z,11.74
2019-04-27T06:35:44.784Z,11.74
2019-04-27T06:36:44.774Z,11.84
2019-04-27T06:37:44.765Z,11.74
2019-04-27T06:38:44.764Z,11.74
2019-04-27T06:39:44.755Z,11.78
2019-04-27T06:40:44.756Z,11.70
2019-04-27T06:41:44.745Z,11.72
2019-04-27T06:42:44.732Z,11.74
2019-04-27T06:43:44.727Z,11.66
2019-04-27T06:44:44.718Z,11.72
2019-04-27T06:45:44.711Z,11.66
2019-04-27T06:46:44.709Z,11.66
2019-04-27T06:47:44.700Z,11.60
2019-04-27T06:48:44.691Z,11.70
2019-04-27T06:49:44.685Z,11.67
2019-04-27T06:50:44.677Z,11.64
2019-04-27T06:51:44.665Z,11.81
2019-04-27T06:52:44.660Z,11.87
2019-04-27T06:53:44.657Z,11.69
2019-04-27T06:54:44.643Z,11.81
2019-04-27T06:55:44.636Z,11.84
2019-04-27T06:56:44.630Z,11.78
2019-04-27T06:57:44.625Z,11.84
2019-04-27T06:58:44.621Z,11.88
2019-04-27T06:59:44.615Z,11.87
2019-04-27T07:00:44.605Z,11.87
2019-04-27T07:01:44.600Z,11.82
2019-04-27T07:02:44.588Z,11.81
2019-04-27T07:03:44.582Z,11.77
2019-04-27T07:04:44.571Z,11.78
2019-04-27T07:05:44.563Z,11.70
2019-04-27T07:06:53.409Z,11.77
2019-04-27T07:07:44.554Z,11.81
2019-04-27T07:08:44.540Z,11.81
2019-04-27T07:09:44.534Z,11.77
2019-04-27T07:10:44.531Z,11.90
2019-04-27T07:11:44.526Z,11.90
2019-04-27T07:12:44.519Z,11.90
2019-04-27T07:13:44.512Z,11.88
2019-04-27T07:14:52.915Z,11.94
2019-04-27T07:15:44.496Z,11.97
2019-04-27T07:16:44.489Z,11.87
2019-04-27T07:17:44.477Z,12.00
2019-04-27T07:18:44.475Z,11.94
2019-04-27T07:19:44.468Z,11.96
2019-04-27T07:20:44.463Z,11.94
2019-04-27T07:21:44.454Z,11.96
2019-04-27T07:22:44.445Z,11.87
2019-04-27T07:23:44.439Z,11.82
2019-04-27T07:24:44.434Z,11.78
2019-04-27T07:25:44.428Z,11.70
2019-04-27T07:26:44.415Z,11.75
2019-04-27T07:27:44.435Z,11.75
2019-04-27T07:28:44.401Z,11.70
2019-04-27T07:29:44.849Z,11.77
2019-04-27T07:30:44.390Z,11.77
2019-04-27T07:31:44.383Z,11.69
2019-04-27T07:32:44.375Z,11.79
2019-04-27T07:33:44.366Z,11.84
2019-04-27T07:34:44.361Z,11.79
2019-04-27T07:35:44.349Z,11.81
2019-04-27T07:36:44.344Z,11.82
2019-04-27T07:37:44.336Z,11.90
2019-04-27T07:38:44.334Z,11.93
2019-04-27T07:39:44.329Z,11.82
2019-04-27T07:40:44.315Z,11.82
2019-04-27T07:41:44.307Z,11.78
2019-04-27T07:42:46.016Z,11.87
2019-04-27T07:43:44.297Z,11.82
2019-04-27T07:44:44.288Z,11.81
2019-04-27T07:45:44.283Z,11.81
2019-04-27T07:46:44.270Z,11.90
2019-04-27T07:47:44.264Z,11.88
2019-04-27T07:48:44.255Z,11.79
2019-04-27T07:49:44.248Z,11.85
2019-04-27T07:50:44.246Z,11.87
2019-04-27T07:51:44.245Z,11.81
2019-04-27T07:52:44.235Z,11.85
2019-04-27T07:53:44.227Z,11.93
2019-04-27T07:54:44.216Z,11.96
2019-04-27T07:55:44.211Z,11.94
2019-04-27T07:56:44.205Z,11.94
2019-04-27T07:57:44.197Z,11.98
2019-04-27T07:58:44.187Z,11.98
2019-04-27T07:59:44.181Z,11.94
2019-04-27T08:00:44.170Z,11.94
2019-04-27T08:01:44.164Z,11.93
2019-04-27T08:02:44.166Z,11.88
2019-04-27T08:03:44.155Z,11.88
2019-04-27T08:04:44.147Z,11.81
2019-04-27T08:05:44.141Z,11.81
2019-04-27T08:06:44.132Z,11.97
2019-04-27T08:07:44.123Z,11.94
2019-04-27T08:08:44.118Z,11.94
2019-04-27T08:09:44.110Z,11.94
2019-04-27T08:10:44.108Z,11.90
2019-04-27T08:11:44.101Z,11.96
2019-04-27T08:12:44.089Z,11.96
2019-04-27T08:13:44.083Z,12.00
2019-04-27T08:14:44.079Z,11.94
2019-04-27T08:15:44.073Z,12.03
2019-04-27T08:16:44.064Z,12.03
2019-04-27T08:17:44.056Z,12.13
2019-04-27T08:18:44.047Z,11.93
2019-04-27T08:19:44.039Z,12.05
2019-04-27T08:20:44.034Z,11.97
2019-04-27T08:21:46.567Z,11.97
2019-04-27T08:22:44.026Z,11.94
2019-04-27T08:23:44.018Z,11.93
2019-04-27T08:24:44.007Z,11.96
2019-04-27T08:25:44.003Z,11.88
2019-04-27T08:26:43.990Z,11.96
2019-04-27T08:27:43.986Z,11.82
2019-04-27T08:28:43.981Z,11.79
2019-04-27T08:29:43.974Z,11.85
2019-04-27T08:30:43.965Z,11.93
2019-04-27T08:31:43.955Z,11.93
2019-04-27T08:32:43.951Z,11.97
2019-04-27T08:33:43.944Z,11.98
2019-04-27T08:34:43.941Z,11.94
2019-04-27T08:35:43.934Z,11.96
2019-04-27T08:36:43.927Z,11.97
2019-04-27T08:37:43.922Z,12.03
2019-04-27T08:38:43.909Z,11.93
2019-04-27T08:39:43.903Z,12.01
2019-04-27T08:40:43.892Z,11.88
2019-04-27T08:41:43.884Z,11.97
2019-04-27T08:42:43.883Z,12.01
2019-04-27T08:43:43.876Z,12.15
2019-04-27T08:44:43.862Z,12.08
2019-04-27T08:45:43.857Z,12.08
2019-04-27T08:46:43.853Z,12.22
2019-04-27T08:47:43.847Z,12.23
2019-04-27T08:48:43.842Z,12.16
2019-04-27T08:49:43.833Z,12.05
2019-04-27T08:50:43.824Z,12.21
2019-04-27T08:51:56.055Z,12.31
2019-04-27T08:52:43.808Z,12.37
2019-04-27T08:53:43.802Z,12.34
2019-04-27T08:54:43.799Z,12.31
2019-04-27T08:55:43.793Z,12.46
2019-04-27T08:56:43.787Z,12.59
2019-04-27T08:57:43.777Z,12.61
2019-04-27T08:58:43.766Z,12.48
2019-04-27T08:59:43.760Z,12.49
2019-04-27T09:00:43.757Z,12.44
2019-04-27T09:01:43.750Z,12.37
2019-04-27T09:02:47.106Z,12.26
2019-04-27T09:03:43.733Z,12.23
2019-04-27T09:04:43.729Z,12.30
2019-04-27T09:05:43.721Z,12.26
2019-04-27T09:06:43.721Z,12.23
2019-04-27T09:07:43.716Z,12.25
2019-04-27T09:08:43.707Z,12.25
2019-04-27T09:09:43.702Z,12.25
2019-04-27T09:10:43.688Z,12.23
2019-04-27T09:11:43.683Z,12.19
2019-04-27T09:12:43.673Z,12.26
2019-04-27T09:13:43.666Z,12.29
2019-04-27T09:14:43.664Z,12.18
2019-04-27T09:15:43.658Z,12.11
2019-04-27T09:16:43.654Z,12.18
2019-04-27T09:17:43.640Z,12.22
2019-04-27T09:18:43.639Z,12.13
2019-04-27T09:19:43.634Z,12.21
2019-04-27T09:20:43.626Z,12.25
2019-04-27T09:21:43.621Z,12.23
2019-04-27T09:22:43.609Z,12.21
2019-04-27T09:23:43.605Z,12.33
2019-04-27T09:24:43.595Z,12.36
2019-04-27T09:25:43.588Z,12.31
2019-04-27T09:26:43.584Z,12.46
2019-04-27T09:27:43.578Z,12.43
2019-04-27T09:28:43.571Z,12.51
2019-04-27T09:29:43.569Z,12.51
2019-04-27T09:30:43.555Z,12.54
2019-04-27T09:31:43.548Z,12.54
2019-04-27T09:32:43.544Z,12.59
2019-04-27T09:33:43.538Z,12.51
2019-04-27T09:34:43.530Z,12.46
2019-04-27T09:35:43.522Z,12.54
2019-04-27T09:36:43.511Z,12.54
2019-04-27T09:37:43.503Z,12.51
2019-04-27T09:38:43.501Z,12.52
2019-04-27T09:39:43.494Z,12.51
2019-04-27T09:40:43.487Z,12.43
2019-04-27T09:41:43.480Z,12.37
2019-04-27T09:42:43.470Z,12.25
2019-04-27T09:43:43.465Z,12.19
2019-04-27T09:44:43.459Z,12.12
2019-04-27T09:45:43.454Z,12.12
2019-04-27T09:46:43.450Z,12.05
2019-04-27T09:47:43.443Z,12.04
2019-04-27T09:48:43.430Z,11.94
2019-04-27T09:49:43.430Z,11.88
2019-04-27T09:50:43.420Z,11.79
2019-04-27T09:51:43.414Z,11.93
2019-04-27T09:52:43.406Z,11.94
2019-04-27T09:53:43.398Z,11.87
2019-04-27T09:54:43.388Z,12.03
2019-04-27T09:55:43.379Z,12.01
2019-04-27T09:56:43.374Z,12.03
2019-04-27T09:57:43.366Z,12.08
2019-04-27T09:58:43.367Z,11.96
2019-04-27T09:59:43.360Z,12.01
2019-04-27T10:00:43.352Z,12.11
2019-04-27T10:01:43.346Z,11.97
2019-04-27T10:02:43.336Z,12.03
2019-04-27T10:03:43.327Z,12.07
2019-04-27T10:04:43.328Z,12.15
2019-04-27T10:05:43.318Z,12.25
2019-04-27T10:06:43.308Z,12.19
2019-04-27T10:07:43.303Z,12.36
2019-04-27T10:08:43.292Z,12.34
2019-04-27T10:09:43.285Z,12.37
2019-04-27T10:10:43.282Z,12.38
2019-04-27T10:11:43.277Z,12.51
2019-04-27T10:12:43.271Z,12.58
2019-04-27T10:13:43.263Z,12.62
2019-04-27T10:14:43.252Z,12.58
2019-04-27T10:15:43.248Z,12.46
2019-04-27T10:16:43.243Z,12.40
2019-04-27T10:17:43.236Z,12.44
2019-04-27T10:18:43.234Z,12.43
2019-04-27T10:19:43.227Z,12.51
2019-04-27T10:20:56.285Z,12.55
2019-04-27T10:21:43.216Z,12.48
2019-04-27T10:22:43.808Z,12.56
2019-04-27T10:23:43.203Z,12.58
2019-04-27T10:24:43.195Z,12.62
2019-04-27T10:25:43.189Z,12.70
2019-04-27T10:26:43.848Z,12.63
2019-04-27T10:27:43.171Z,12.67
2019-04-27T10:28:43.163Z,12.76
2019-04-27T10:29:43.158Z,12.77
2019-04-27T10:30:43.160Z,12.67
2019-04-27T10:31:43.150Z,12.61
2019-04-27T10:32:43.149Z,12.69
2019-04-27T10:33:43.140Z,12.67
2019-04-27T10:34:43.129Z,12.76
2019-04-27T10:35:43.125Z,12.61
2019-04-27T10:36:43.138Z,12.55
2019-04-27T10:37:43.116Z,12.51
2019-04-27T10:38:43.108Z,12.54
2019-04-27T10:39:43.101Z,12.51
2019-04-27T10:40:43.091Z,12.41
2019-04-27T10:41:43.101Z,12.36
2019-04-27T10:42:43.084Z,12.38
2019-04-27T10:43:43.080Z,12.46
2019-04-27T10:44:43.071Z,12.40
2019-04-27T10:45:43.065Z,12.49
2019-04-27T10:46:43.055Z,12.52
2019-04-27T10:47:43.050Z,12.51
2019-04-27T10:48:43.050Z,12.54
2019-04-27T10:49:43.038Z,12.54
2019-04-27T10:50:43.038Z,12.55
2019-04-27T10:51:43.030Z,12.58
2019-04-27T10:52:52.880Z,12.81
2019-04-27T10:53:43.016Z,12.84
2019-04-27T10:54:43.013Z,12.87
2019-04-27T10:55:43.008Z,12.91
2019-04-27T10:56:43.000Z,13.01
2019-04-27T10:57:42.992Z,13.13
2019-04-27T10:58:42.981Z,13.14
2019-04-27T10:59:42.976Z,13.09
2019-04-27T11:00:42.971Z,13.07
2019-04-27T11:01:42.966Z,13.03
2019-04-27T11:02:42.962Z,12.91
2019-04-27T11:03:42.957Z,12.88
2019-04-27T11:04:42.956Z,12.74
2019-04-27T11:05:42.947Z,12.77
2019-04-27T11:06:42.939Z,12.79
2019-04-27T11:07:42.931Z,12.69
2019-04-27T11:08:42.930Z,12.73
2019-04-27T11:09:42.923Z,12.74
2019-04-27T11:10:42.915Z,12.67
2019-04-27T11:11:42.910Z,12.73
2019-04-27T11:12:42.898Z,12.80
2019-04-27T11:13:42.893Z,12.58
2019-04-27T11:14:42.904Z,12.58
2019-04-27T11:15:42.887Z,12.46
2019-04-27T11:16:42.881Z,12.49
2019-04-27T11:17:42.873Z,12.51
2019-04-27T11:18:42.865Z,12.56
2019-04-27T11:19:42.861Z,12.55
2019-04-27T11:20:42.855Z,12.43
2019-04-27T11:21:42.850Z,12.30
2019-04-27T11:22:42.848Z,12.33
2019-04-27T11:23:42.840Z,12.37
2019-04-27T11:24:42.831Z,12.36
2019-04-27T11:25:42.825Z,12.40
2019-04-27T11:26:42.828Z,12.38
2019-04-27T11:27:42.817Z,12.36
2019-04-27T11:28:42.880Z,12.44
2019-04-27T11:29:42.803Z,12.52
2019-04-27T11:30:42.792Z,12.43
2019-04-27T11:31:42.786Z,12.63
2019-04-27T11:32:42.783Z,12.59
2019-04-27T11:33:42.776Z,12.59
2019-04-27T11:34:42.776Z,12.58
2019-04-27T11:35:42.771Z,12.62
2019-04-27T11:36:42.760Z,12.59
2019-04-27T11:37:42.755Z,12.56
2019-04-27T11:38:42.745Z,12.55
2019-04-27T11:39:42.740Z,12.54
2019-04-27T11:40:42.738Z,12.49
2019-04-27T11:41:42.734Z,12.51
2019-04-27T11:42:42.723Z,12.49
2019-04-27T11:43:42.715Z,12.52
2019-04-27T11:44:42.711Z,12.49
2019-04-27T11:45:42.707Z,12.43
2019-04-27T11:46:42.708Z,12.25
2019-04-27T11:47:42.700Z,12.21
2019-04-27T11:48:42.691Z,12.18
2019-04-27T11:49:42.685Z,12.30
2019-04-27T11:50:42.678Z,12.34
2019-04-27T11:51:42.670Z,12.40
2019-04-27T11:52:42.662Z,12.37
2019-04-27T11:53:42.660Z,12.22
2019-04-27T11:54:42.655Z,12.13
2019-04-27T11:55:42.649Z,12.25
2019-04-27T11:56:42.638Z,12.41
2019-04-27T11:57:42.634Z,12.37
2019-04-27T11:58:42.630Z,12.25
2019-04-27T11:59:42.627Z,12.26
2019-04-27T12:00:42.621Z,12.37
2019-04-27T12:01:42.615Z,12.43
2019-04-27T12:02:42.607Z,12.58
2019-04-27T12:03:42.601Z,12.70
2019-04-27T12:04:42.594Z,12.79
2019-04-27T12:05:42.591Z,12.76
2019-04-27T12:06:42.595Z,12.88
2019-04-27T12:07:42.584Z,12.92
2019-04-27T12:08:42.575Z,12.96
2019-04-27T12:09:42.569Z,12.92
2019-04-27T12:10:42.560Z,12.77
2019-04-27T12:11:42.555Z,12.81
2019-04-27T12:12:42.551Z,12.63
2019-04-27T12:13:42.550Z,12.48
2019-04-27T12:14:42.546Z,12.33
2019-04-27T12:15:42.532Z,12.40
2019-04-27T12:16:42.529Z,12.56
2019-04-27T12:17:42.523Z,12.59
2019-04-27T12:18:42.538Z,12.71
2019-04-27T12:19:42.518Z,12.94
2019-04-27T12:20:42.517Z,12.74
2019-04-27T12:21:42.508Z,12.91
2019-04-27T12:22:42.500Z,12.92
2019-04-27T12:23:42.518Z,13.17
2019-04-27T12:24:42.485Z,13.31
2019-04-27T12:25:42.481Z,13.36
2019-04-27T12:26:42.482Z,13.39
2019-04-27T12:27:42.479Z,13.21
2019-04-27T12:28:42.468Z,13.17
2019-04-27T12:29:42.461Z,13.17
2019-04-27T12:30:42.463Z,13.09
2019-04-27T12:31:44.822Z,12.98
2019-04-27T12:32:42.454Z,13.10
2019-04-27T12:33:42.448Z,13.29
2019-04-27T12:34:42.441Z,13.39
2019-04-27T12:35:42.437Z,13.55
2019-04-27T12:36:42.427Z,13.91
2019-04-27T12:37:42.425Z,14.16
2019-04-27T12:38:42.424Z,14.20
2019-04-27T12:39:42.419Z,14.29
2019-04-27T12:40:42.415Z,14.29
2019-04-27T12:41:42.411Z,14.41
2019-04-27T12:42:42.405Z,14.48
2019-04-27T12:43:42.400Z,14.29
2019-04-27T12:44:42.554Z,14.44
2019-04-27T12:45:43.674Z,14.52
2019-04-27T12:46:42.386Z,14.67
2019-04-27T12:47:42.388Z,14.63
2019-04-27T12:48:42.375Z,14.63
2019-04-27T12:49:42.372Z,14.66
2019-04-27T12:50:42.372Z,14.79
2019-04-27T12:51:42.369Z,14.61
2019-04-27T12:52:42.366Z,14.64